默认 日期 大小 文件数 浏览量 最新下载 xml
scream.磁力链接相关资源由用户搜索指令自动获取,结果来源于网络,本站不存储任何资料,亦不承担任何责任,请于24小时内删除,搜索到6226个磁力,显示前4000条数据,用时5ms。
    {"Scream.1996.BDRip.1080p.by_genkasper.mkv": 11401454654, "Scream.2.1997.BDRip.1080p.by_genkasper.mkv": 13645488147, "Scream.3.2000.BDRip.1080p.by_genkasper.mkv": 13637521904, "Scream.4.2011.BDRip.1080p.by_genkasper.mkv": 9393493556}
创建时间: 2018-11-07 03:07:37 大小:44.78 GB 文件数量:4 热度:9 最近下载:2025-01-02 22:45:04
    ... .WEBDLRip.NewStudio.avi": 568268800, "Scream.Queens.s01e05.WEBDLRip.NewStudio.avi ... ": 566061056, "Scream.Queens.s01e06.WEBDLRip.NewStudio.avi ... s01e13.WEBDLRip.NewStudio.avi": 576700416, "Scream.Queens.s01e01e02.WEBDLRip.NewStudio.avi ...
创建时间: 2018-11-07 04:35:18 大小:6.86 GB 文件数量:12 热度:11 最近下载:2024-07-01 13:39:02
    ... .mp3": 8153253, "02. Bleed and Scream.mp3": 9910773, "08. Take Back ...
创建时间: 2018-11-07 05:28:05 大小:111.02 MB 文件数量:11 热度:7 最近下载:2024-07-01 13:02:02
    {"04 SAVAGES.m4a": 6403128, "09 Freak Flag.m4a": 7094216, "11 Merry Axe-Mas.m4a": 6857299, "06 A Grave Mistake.m4a": 6611376, "03 Stabbing In The Dark.m4a": 9427671, "02 Thank God It's Friday.m4a": 9277137, "01 The American Nightmare.m4a": 8776159, "08 ...
创建时间: 2018-11-07 10:00:04 大小:99.64 MB 文件数量:13 热度:8 最近下载:2025-05-01 08:50:01
    {"RARBG.com.txt": 34, "Scream.Queens.2015.S01E06.HDTV.x264-KILLERS.mp4": 294344921, "scream.queens.2015.s01e06.hdtv.x264-killers.nfo": 10872}
创建时间: 2018-11-07 11:05:16 大小:280.72 MB 文件数量:3 热度:8 最近下载:2024-07-01 12:56:03
    {"08-stargazer-tongues.mp3": 3102220, "05-stargazer-harbringer.mp3": 2855833, "11-stargazer-all_that_is.mp3": 3397508, "01-stargazer-___of_the_sun.mp3": 4219425, "07-stargazer-pale_brethren.mp3": 8387314, "06-stargazer-ye_olde_magicks.mp3": 11108855, "04- ...
创建时间: 2018-11-07 11:50:21 大小:57.59 MB 文件数量:11 热度:12 最近下载:2025-03-30 01:57:02
    ... S02E02.400p.SunshineStudio.avi": 378721808, "Scream.Queens.S02E03.400p.SunshineStudio.avi ... ": 555780096, "Scream.Queens.S02E04.400p.SunshineStudio.avi ... ": 545570816, "Scream.Queens.S02E05.400p.SunshineStudio.avi ...
创建时间: 2018-11-07 15:40:04 大小:3.93 GB 文件数量:8 热度:6 最近下载:2025-03-23 14:28:02
    {"scr-hr.mkv": 882798248, "scr-hr.nfo": 7614}
创建时间: 2018-11-07 16:46:28 大小:841.91 MB 文件数量:2 热度:9 最近下载:2025-08-04 09:25:05
    {"CTTV.png": 20186, "CTTV Release Group.png": 99959, "Scream.Queens.2015.S01E11.720p.HDTV.x264-0SEC[cttv].mkv": 1271995097}
创建时间: 2018-11-07 17:57:50 大小:1.18 GB 文件数量:3 热度:7 最近下载:2023-04-10 08:50:03
    {"Subs": {"2_Eng.srt": 70429}, "RARBG.COM.mp4": 1016764, "RARBG.COM.txt": 34, "Scream.Queens.S02E06.WEB-DL.x264-RARBG.mp4": 301539821, "Scream.Queens.S02E06.WEB-DL.x264-RARBG.nfo": 4002}
创建时间: 2018-11-07 18:14:13 大小:288.61 MB 文件数量:5 热度:5 最近下载:2023-04-10 09:00:15
    {"Torrent-Downloaded-from-ExtraTorrent.cc.txt": 288, "Scream.Queens.2015.S01E05.HDTV.x264-FUM[ettv].mp4": 303391394}
创建时间: 2018-11-07 18:21:51 大小:289.34 MB 文件数量:2 热度:8 最近下载:2023-04-10 09:00:17
    {"UnKnowN.nfo": 10123, "dvd cover.jpg": 244156, "askUnKnOwN.avi": 738707454}
创建时间: 2018-11-07 19:29:53 大小:704.73 MB 文件数量:3 热度:7 最近下载:2024-07-01 13:39:01
    {"LKRG.nfo": 9990, "ScreamPark_LKRG.avi": 663664640}
创建时间: 2018-11-07 20:15:32 大小:632.93 MB 文件数量:2 热度:7 最近下载:2025-02-08 03:08:05
    ... 84203, "front.jpg": 117406, "Primal Scream - Evil Heat (Disc 1) (SICP ... -1899).cue": 2003, "Primal Scream - Evil Heat (Disc 1) ( ... SICP-1899).log": 6640, "Primal Scream - Evil Heat (Disc 1) ( ... , "front.jpg": 117406, "Primal Scream - Evil Heat (Disc 2) (SICP ...
创建时间: 2018-11-07 20:58:12 大小:684.36 MB 文件数量:10 热度:7 最近下载:2024-10-04 09:44:03
    {"RARBG.txt": 30, "Scream.1996.720p.BluRay.H264.AAC-RARBG.mp4": 1419885084}
创建时间: 2018-11-07 23:43:41 大小:1.32 GB 文件数量:2 热度:9 最近下载:2025-04-01 04:28:02
    ... -iCV-MIRCrew.avi": 642283520, "Scream.Queens.2x01.WEB-DLMux.XviD ... -iCV-MIRCrew.avi": 663973888, "Scream.Queens.2x02.WEB-DLMux.XviD ... -iCV-MIRCrew.avi": 663570432, "Scream.Queens.2x03.WEB-DLMux.XviD ... -iCV-MIRCrew.avi": 660682752, "Scream.Queens.2x04.WEB-DLMux.XviD ...
创建时间: 2018-11-08 01:20:27 大小:6.11 GB 文件数量:41 热度:9 最近下载:2024-12-18 15:46:01
    ... .jpg": 1062425}, "Tuxedomoon - Half-Mute Scream With A View.cue": 1879 ... , "Tuxedomoon - Half-Mute Scream With A View.log": 4033 ... , "Tuxedomoon - Half-Mute Scream With A View.flac": 258352013}
创建时间: 2018-11-08 02:01:56 大小:254.05 MB 文件数量:11 热度:13 最近下载:2025-09-19 05:03:30
    {"cover.jpg": 172336, "09 - Golden Rope.mp3": 7789669, "03 - I Can Change.mp3": 4396125, "05 - Private Wars.mp3": 3125826, "04 - 100% or Nothing.mp3": 5717589, "08 - Carnival of Fools.mp3": 4985473, "10 - Autumn in Paradise.mp3": 7376407, "01 - Trippin' on ...
创建时间: 2018-11-08 04:36:33 大小:51.05 MB 文件数量:12 热度:7 最近下载:2024-07-01 20:38:03
    {"Scans": {"CD.jpg": 1123717, "Back.jpg": 1602480, "Front.jpg": 1470629}, "сover.jpg": 941427, "08. Omega.mp3": 15356141, "14. Eternal.mp3": 14372895, "03. Gods Of War.mp3": 12085616, "06. Road To Hell.mp3": 9476507, "07. Arc Of Space.mp3": 10328099, "13. ...
创建时间: 2018-11-08 05:58:39 大小:168.71 MB 文件数量:18 热度:8 最近下载:2025-08-03 22:35:09
    {"78319.jpg": 11988, "08 - Glass.mp3": 22185146, "01 - Lo & Ve.mp3": 7113541, "04 - Monoorgy.mp3": 19536335, "03 - Hate-Monger.mp3": 9579509, "02 - Gothic Nudism.mp3": 9736247, "05 - Soul Dissection.mp3": 8542978, "07 - Mental Desert (remix).mp3": 10099888 ...
创建时间: 2018-11-08 06:10:14 大小:89.76 MB 文件数量:9 热度:8 最近下载:2025-04-28 08:03:02